Time;durP1;ratioP1;P1;durP2;ratioP2;P2;SDS_P1;SDS_P2;PMS_P1;PMS_P2;Temp;Humidity;BMP_temperature;BMP_pressure;BME280_temperature;BME280_humidity;BME280_pressure;Samples;Min_cycle;Max_cycle;Signal;HPM_P1;HPM_P2
2022/11/09 00:01:35;;;;;;;1.27;0.93;;;5.70;99.90;;;;;;5073165;28;20999;-47
2022/11/09 00:04:05;;;;;;;1.50;0.90;;;5.60;99.90;;;;;;5072374;28;20883;-47
2022/11/09 00:06:33;;;;;;;1.40;1.00;;;5.60;99.90;;;;;;5073007;28;20479;-47
2022/11/09 00:09:01;;;;;;;1.00;0.67;;;5.40;99.90;;;;;;5072730;28;20532;-47
2022/11/09 00:11:28;;;;;;;1.97;0.90;;;5.60;99.90;;;;;;5072945;28;20474;-47
2022/11/09 00:13:55;;;;;;;1.43;0.77;;;5.40;99.90;;;;;;5072461;28;20591;-49
2022/11/09 00:16:22;;;;;;;2.53;0.80;;;5.00;99.90;;;;;;5073144;28;20535;-48
2022/11/09 00:18:50;;;;;;;2.07;0.90;;;5.00;99.90;;;;;;5072688;28;20550;-50
2022/11/09 00:21:21;;;;;;;2.20;1.10;;;5.20;99.90;;;;;;5072759;28;20780;-49
2022/11/09 00:23:48;;;;;;;1.50;0.80;;;5.30;99.90;;;;;;5072297;28;20480;-48
2022/11/09 00:26:17;;;;;;;1.40;0.90;;;5.30;99.90;;;;;;5072230;28;21009;-49
2022/11/09 00:28:44;;;;;;;1.73;0.67;;;5.50;99.90;;;;;;5072616;28;20494;-47
2022/11/09 00:31:13;;;;;;;1.43;0.87;;;5.60;99.90;;;;;;5072030;28;20535;-48
2022/11/09 00:33:40;;;;;;;1.73;1.07;;;5.60;99.90;;;;;;5071962;28;20600;-48
2022/11/09 00:36:10;;;;;;;1.40;0.77;;;5.70;99.90;;;;;;5072329;28;20538;-47
2022/11/09 00:38:41;;;;;;;1.30;0.83;;;5.30;99.90;;;;;;5072597;28;20446;-47
2022/11/09 00:41:09;;;;;;;1.60;0.77;;;4.80;99.90;;;;;;5072549;28;20443;-49
2022/11/09 00:43:37;;;;;;;3.37;1.00;;;4.90;99.90;;;;;;5072068;28;20596;-48
2022/11/09 00:46:04;;;;;;;1.63;1.20;;;5.20;99.90;;;;;;5072095;28;20513;-47
2022/11/09 00:48:31;;;;;;;2.83;1.20;;;5.40;99.90;;;;;;5071303;28;20526;-47
2022/11/09 00:50:58;;;;;;;1.37;0.80;;;5.50;99.90;;;;;;5072055;28;20478;-48
2022/11/09 00:53:26;;;;;;;1.50;1.00;;;5.40;99.90;;;;;;5072502;28;20497;-47
2022/11/09 00:55:59;;;;;;;1.30;0.90;;;5.50;99.90;;;;;;5072207;28;20464;-47
2022/11/09 00:58:27;;;;;;;2.23;0.93;;;5.50;99.90;;;;;;5072300;28;20533;-48
2022/11/09 01:00:55;;;;;;;1.20;0.90;;;5.50;99.90;;;;;;5072445;28;20530;-47
2022/11/09 01:03:23;;;;;;;2.43;1.40;;;5.30;99.90;;;;;;5072042;28;20900;-47
2022/11/09 01:05:50;;;;;;;2.40;1.30;;;5.40;99.90;;;;;;5071929;28;20464;-50
2022/11/09 01:08:18;;;;;;;1.97;1.40;;;4.80;99.90;;;;;;5071703;28;20470;-47
2022/11/09 01:10:47;;;;;;;2.70;1.23;;;4.80;99.90;;;;;;5071928;28;20975;-47
2022/11/09 01:13:17;;;;;;;1.30;0.87;;;5.20;99.90;;;;;;5071610;28;20530;-47
2022/11/09 01:15:46;;;;;;;1.50;0.80;;;5.30;99.90;;;;;;5071925;28;20541;-51
2022/11/09 01:18:14;;;;;;;1.23;0.60;;;5.30;99.90;;;;;;5071714;28;20537;-48
2022/11/09 01:20:43;;;;;;;1.30;0.80;;;5.40;99.90;;;;;;5071705;28;20641;-47
2022/11/09 01:23:11;;;;;;;1.20;0.70;;;5.30;99.90;;;;;;5071309;28;20447;-47
2022/11/09 01:25:38;;;;;;;1.00;0.60;;;5.30;99.90;;;;;;5071806;28;20509;-47
2022/11/09 01:28:06;;;;;;;1.30;0.70;;;5.40;99.90;;;;;;5071618;28;20489;-47
2022/11/09 01:30:35;;;;;;;1.00;0.80;;;5.30;99.90;;;;;;5071231;28;20535;-47
2022/11/09 01:33:03;;;;;;;1.53;0.80;;;5.40;99.90;;;;;;5071317;28;20533;-47
2022/11/09 01:35:32;;;;;;;1.83;0.80;;;5.30;99.90;;;;;;5071488;28;20469;-47
2022/11/09 01:37:59;;;;;;;1.10;0.70;;;5.40;99.90;;;;;;5071411;28;20521;-47
2022/11/09 01:40:27;;;;;;;0.97;0.63;;;5.50;99.90;;;;;;5071661;28;20455;-47
2022/11/09 01:42:54;;;;;;;1.20;0.73;;;5.50;99.90;;;;;;5071540;28;20923;-48
2022/11/09 01:45:25;;;;;;;1.20;0.60;;;5.60;99.90;;;;;;5071464;28;20464;-47
2022/11/09 01:48:00;;;;;;;1.27;0.77;;;5.60;99.90;;;;;;5071186;28;20561;-47
2022/11/09 01:50:36;;;;;;;1.37;0.90;;;5.60;99.90;;;;;;5071365;28;20476;-47
2022/11/09 01:53:05;;;;;;;1.60;1.03;;;4.20;99.90;;;;;;5070952;28;20530;-48
2022/11/09 01:55:32;;;;;;;1.10;0.90;;;3.70;99.90;;;;;;5071281;28;20545;-47
2022/11/09 01:58:02;;;;;;;1.20;0.90;;;4.00;99.90;;;;;;5071554;28;20520;-48
2022/11/09 02:00:30;;;;;;;2.47;0.80;;;4.20;99.90;;;;;;5071700;28;20524;-49
2022/11/09 02:03:04;;;;;;;1.00;0.60;;;4.50;99.90;;;;;;5070566;28;20537;-48
2022/11/09 02:05:33;;;;;;;1.20;0.80;;;4.70;99.90;;;;;;5070674;28;21016;-47
2022/11/09 02:08:02;;;;;;;1.97;1.07;;;4.90;99.90;;;;;;5071363;28;20562;-48
2022/11/09 02:10:34;;;;;;;1.30;1.00;;;5.00;99.90;;;;;;5071209;28;20895;-47
2022/11/09 02:13:02;;;;;;;1.40;0.70;;;5.00;99.90;;;;;;5071050;28;20478;-47
2022/11/09 02:15:32;;;;;;;1.57;0.80;;;5.00;99.90;;;;;;5072377;28;20470;-52
2022/11/09 02:18:01;;;;;;;1.17;0.67;;;5.10;99.90;;;;;;5070868;28;20477;-47
2022/11/09 02:20:29;;;;;;;1.20;0.80;;;5.10;99.90;;;;;;5070899;28;20883;-47
2022/11/09 02:22:57;;;;;;;1.90;0.90;;;5.20;99.90;;;;;;5070892;28;20495;-47
2022/11/09 02:25:24;;;;;;;1.20;0.70;;;5.30;99.90;;;;;;5070870;28;20507;-47
2022/11/09 02:27:51;;;;;;;1.20;0.77;;;5.00;99.90;;;;;;5070982;28;20488;-47
2022/11/09 02:30:20;;;;;;;1.63;0.73;;;5.10;99.90;;;;;;5070722;28;20477;-47
2022/11/09 02:32:48;;;;;;;1.27;0.93;;;5.00;99.90;;;;;;5070934;28;20451;-48
2022/11/09 02:35:15;;;;;;;1.17;0.80;;;4.60;99.90;;;;;;5070589;28;20903;-47
2022/11/09 02:37:47;;;;;;;1.73;0.83;;;4.40;99.90;;;;;;5070813;28;20477;-48
2022/11/09 02:40:17;;;;;;;1.50;1.10;;;4.60;99.90;;;;;;5070825;28;20449;-47
2022/11/09 02:42:44;;;;;;;1.30;0.70;;;4.90;99.90;;;;;;5070993;28;20945;-47
2022/11/09 02:45:12;;;;;;;1.70;0.97;;;5.00;99.90;;;;;;5070528;28;21042;-47
2022/11/09 02:47:38;;;;;;;1.20;0.70;;;4.80;99.90;;;;;;5070706;28;20911;-47
2022/11/09 02:50:06;;;;;;;1.23;0.80;;;4.90;99.90;;;;;;5070591;28;20463;-47
2022/11/09 02:52:33;;;;;;;1.20;0.80;;;5.00;99.90;;;;;;5070632;28;21026;-48
2022/11/09 02:55:01;;;;;;;1.00;0.70;;;5.00;99.90;;;;;;5070808;28;20493;-47
2022/11/09 02:57:28;;;;;;;1.40;0.73;;;5.00;99.90;;;;;;5070682;28;21056;-48
2022/11/09 02:59:55;;;;;;;1.57;0.93;;;4.90;99.90;;;;;;5071159;28;20449;-49
2022/11/09 03:02:22;;;;;;;1.23;0.70;;;5.00;99.90;;;;;;5070487;28;20561;-47
2022/11/09 03:04:49;;;;;;;1.20;0.80;;;5.10;99.90;;;;;;5070358;28;20915;-47
2022/11/09 03:07:16;;;;;;;1.23;0.83;;;5.00;99.90;;;;;;5070719;28;20520;-47
2022/11/09 03:09:44;;;;;;;1.60;0.90;;;4.50;99.90;;;;;;5070681;28;20483;-47
2022/11/09 03:12:31;;;;;;;1.30;0.90;;;4.50;99.90;;;;;;5072982;28;20963;-47
2022/11/09 03:14:59;;;;;;;1.60;1.00;;;4.20;99.90;;;;;;5073952;28;20540;-50
2022/11/09 03:17:26;;;;;;;2.37;0.80;;;4.40;99.90;;;;;;5073975;28;20572;-47
2022/11/09 03:19:53;;;;;;;1.10;0.80;;;4.50;99.90;;;;;;5074027;28;20472;-47
2022/11/09 03:22:21;;;;;;;1.43;0.80;;;4.70;99.90;;;;;;5074077;28;20582;-47
2022/11/09 03:24:48;;;;;;;1.10;0.70;;;4.80;99.90;;;;;;5073817;28;20569;-47
2022/11/09 03:27:17;;;;;;;1.30;0.90;;;4.90;99.90;;;;;;5073920;28;20444;-48
2022/11/09 03:29:43;;;;;;;1.10;0.70;;;5.00;99.90;;;;;;5073822;28;20482;-48
2022/11/09 03:32:10;;;;;;;1.97;1.27;;;5.00;99.90;;;;;;5073698;28;21015;-47
2022/11/09 03:34:37;;;;;;;1.50;0.90;;;4.80;99.90;;;;;;5073522;28;21046;-47
2022/11/09 03:37:04;;;;;;;1.20;0.70;;;4.80;99.90;;;;;;5073632;28;20917;-47
2022/11/09 03:39:32;;;;;;;1.60;0.80;;;4.70;99.90;;;;;;5073631;28;20541;-48
2022/11/09 03:41:59;;;;;;;1.20;0.77;;;4.90;99.90;;;;;;5073809;28;20451;-47
2022/11/09 03:44:27;;;;;;;1.57;1.00;;;5.00;99.90;;;;;;5073369;28;20549;-51
2022/11/09 03:46:54;;;;;;;1.00;0.67;;;5.00;99.90;;;;;;5073687;28;20520;-49
2022/11/09 03:49:22;;;;;;;1.97;1.37;;;5.10;99.90;;;;;;5073309;28;20902;-47
2022/11/09 03:51:50;;;;;;;4.83;0.97;;;5.20;99.90;;;;;;5073544;28;20874;-47
2022/11/09 03:54:17;;;;;;;1.20;0.90;;;5.00;99.90;;;;;;5073311;28;20510;-48
2022/11/09 03:56:44;;;;;;;1.10;0.83;;;5.10;99.90;;;;;;5073616;28;20529;-47
2022/11/09 03:59:11;;;;;;;1.33;0.90;;;5.00;99.90;;;;;;5073366;28;20490;-48
2022/11/09 04:01:39;;;;;;;2.80;1.43;;;4.60;99.90;;;;;;5073114;28;20513;-48
2022/11/09 04:04:06;;;;;;;1.37;1.00;;;4.80;99.90;;;;;;5072708;28;20846;-47
2022/11/09 04:06:33;;;;;;;1.57;1.03;;;4.60;99.90;;;;;;5073393;28;20538;-47
2022/11/09 04:09:00;;;;;;;3.30;1.27;;;4.70;99.90;;;;;;5073323;28;20526;-48
2022/11/09 04:11:27;;;;;;;1.20;0.93;;;4.80;99.90;;;;;;5073188;28;20950;-48
2022/11/09 04:13:53;;;;;;;2.50;0.87;;;4.30;99.90;;;;;;5072683;28;20469;-50
2022/11/09 04:16:20;;;;;;;1.53;0.90;;;4.10;99.90;;;;;;5073190;28;20441;-47
2022/11/09 04:18:49;;;;;;;1.10;0.60;;;4.10;99.90;;;;;;5073106;28;20482;-47
2022/11/09 04:21:15;;;;;;;1.57;1.10;;;4.00;99.90;;;;;;5072868;28;20523;-47
2022/11/09 04:23:42;;;;;;;1.40;1.00;;;4.20;99.90;;;;;;5072658;28;20526;-48
2022/11/09 04:26:09;;;;;;;1.50;0.97;;;4.40;99.90;;;;;;5072702;28;20510;-48
2022/11/09 04:28:36;;;;;;;1.27;1.17;;;4.40;99.90;;;;;;5072918;28;20520;-50
2022/11/09 04:31:03;;;;;;;2.00;0.80;;;4.60;99.90;;;;;;5072572;28;20531;-47
2022/11/09 04:33:30;;;;;;;2.53;0.77;;;4.70;99.90;;;;;;5072543;28;20535;-47
2022/11/09 04:36:03;;;;;;;2.13;1.20;;;4.70;99.90;;;;;;5072447;28;20457;-49
2022/11/09 04:38:30;;;;;;;1.70;1.17;;;4.40;99.90;;;;;;5072525;28;20481;-47
2022/11/09 04:41:00;;;;;;;2.60;1.50;;;4.50;99.90;;;;;;5072496;28;21021;-47
2022/11/09 04:43:27;;;;;;;1.10;1.00;;;4.30;99.90;;;;;;5072282;28;20527;-47
2022/11/09 04:45:54;;;;;;;2.37;1.10;;;4.00;99.90;;;;;;5072326;28;20541;-47
2022/11/09 04:48:21;;;;;;;3.00;1.10;;;4.00;99.90;;;;;;5072336;28;20438;-47
2022/11/09 04:50:48;;;;;;;2.07;1.10;;;4.30;99.90;;;;;;5072282;28;20575;-48
2022/11/09 04:53:16;;;;;;;1.43;0.93;;;4.60;99.90;;;;;;5071967;28;20939;-47
2022/11/09 04:55:44;;;;;;;1.43;1.03;;;4.80;99.90;;;;;;5072060;28;20556;-47
2022/11/09 04:58:11;;;;;;;1.20;0.70;;;4.90;99.90;;;;;;5072161;28;20473;-47
2022/11/09 05:00:39;;;;;;;1.33;1.10;;;5.00;99.90;;;;;;5072186;28;20574;-47
2022/11/09 05:03:07;;;;;;;1.73;1.30;;;5.00;99.90;;;;;;5071753;28;21055;-47
2022/11/09 05:05:35;;;;;;;2.03;1.07;;;5.00;99.90;;;;;;5072081;28;20898;-47
2022/11/09 05:08:02;;;;;;;2.17;1.30;;;5.00;99.90;;;;;;5072090;28;20439;-47
2022/11/09 05:10:30;;;;;;;2.57;1.83;;;5.00;99.90;;;;;;5071786;28;21019;-50
2022/11/09 05:12:58;;;;;;;2.93;2.50;;;5.00;99.90;;;;;;5071643;28;21025;-48
2022/11/09 05:15:25;;;;;;;5.50;3.70;;;4.90;99.90;;;;;;5072105;28;20484;-47
2022/11/09 05:17:52;;;;;;;4.50;3.50;;;4.80;99.90;;;;;;5071894;28;20557;-48
2022/11/09 05:20:19;;;;;;;4.87;3.60;;;4.70;99.90;;;;;;5071985;28;20521;-47
2022/11/09 05:25:32;;;;;;;3.43;2.80;;;4.80;99.90;;;;;;5071793;28;20436;-47
2022/11/09 05:27:59;;;;;;;1.90;1.10;;;4.80;99.90;;;;;;5071780;28;20534;-48
2022/11/09 05:30:26;;;;;;;3.30;1.53;;;4.90;99.90;;;;;;5071255;28;20531;-47
2022/11/09 05:32:53;;;;;;;2.30;2.07;;;4.90;99.90;;;;;;5071591;28;20460;-46
2022/11/09 05:35:20;;;;;;;1.87;1.07;;;5.00;99.90;;;;;;5071105;28;20549;-47
2022/11/09 05:37:48;;;;;;;1.57;0.97;;;4.90;99.90;;;;;;5071449;28;20923;-50
2022/11/09 05:40:16;;;;;;;1.53;1.40;;;4.90;99.90;;;;;;5071340;28;20471;-50
2022/11/09 05:42:45;;;;;;;2.37;1.53;;;4.60;99.90;;;;;;5071601;28;20971;-47
2022/11/09 05:45:13;;;;;;;1.70;1.60;;;4.80;99.90;;;;;;5071524;28;20457;-48
2022/11/09 05:47:41;;;;;;;1.20;0.80;;;4.80;99.90;;;;;;5071331;28;21013;-49
2022/11/09 05:50:10;;;;;;;1.80;1.30;;;4.70;99.90;;;;;;5071460;28;20873;-48
2022/11/09 05:52:37;;;;;;;1.60;1.50;;;4.40;99.90;;;;;;5071638;28;20523;-48
2022/11/09 05:55:05;;;;;;;2.43;1.73;;;4.30;99.90;;;;;;5071238;28;20980;-49
2022/11/09 05:57:32;;;;;;;1.93;1.50;;;4.30;99.90;;;;;;5071359;28;20595;-47
2022/11/09 06:00:00;;;;;;;2.53;2.10;;;4.10;99.90;;;;;;5071915;28;20434;-47
2022/11/09 06:02:30;;;;;;;1.60;1.50;;;4.50;99.90;;;;;;5070981;28;20530;-48
2022/11/09 06:04:58;;;;;;;1.50;1.10;;;4.70;99.90;;;;;;5070914;28;20486;-48
2022/11/09 06:07:25;;;;;;;4.43;3.20;;;4.80;99.90;;;;;;5071406;28;20515;-48
2022/11/09 06:09:52;;;;;;;3.10;1.80;;;4.50;99.90;;;;;;5071261;28;20531;-47
2022/11/09 06:12:18;;;;;;;1.80;1.40;;;4.20;99.90;;;;;;5071296;28;20611;-47
2022/11/09 06:14:45;;;;;;;1.60;1.07;;;4.50;99.90;;;;;;5070815;28;20551;-48
2022/11/09 06:17:14;;;;;;;1.53;0.70;;;4.40;99.90;;;;;;5071196;28;20534;-47
2022/11/09 06:19:40;;;;;;;2.73;1.53;;;4.30;99.90;;;;;;5071311;28;20631;-47
2022/11/09 06:22:07;;;;;;;1.77;1.53;;;4.30;99.90;;;;;;5071217;28;20446;-47
2022/11/09 06:24:34;;;;;;;1.50;1.40;;;4.50;99.90;;;;;;5070881;28;20552;-47
2022/11/09 06:27:01;;;;;;;2.93;2.17;;;4.60;99.90;;;;;;5071023;28;21028;-47
2022/11/09 06:29:28;;;;;;;2.60;1.50;;;4.80;99.90;;;;;;5070746;28;20518;-49
2022/11/09 06:31:55;;;;;;;1.93;1.67;;;4.00;99.90;;;;;;5070628;28;20443;-48
2022/11/09 06:34:23;;;;;;;2.30;2.10;;;4.30;99.90;;;;;;5070666;28;20497;-47
2022/11/09 06:36:50;;;;;;;2.30;1.70;;;4.50;99.90;;;;;;5071106;28;20451;-47
2022/11/09 06:39:17;;;;;;;4.43;2.00;;;4.60;99.90;;;;;;5071008;28;20478;-49
2022/11/09 06:41:44;;;;;;;2.40;1.30;;;4.70;99.90;;;;;;5071045;28;20519;-47
2022/11/09 06:44:10;;;;;;;2.53;0.90;;;4.70;99.90;;;;;;5070720;28;20527;-47
2022/11/09 06:46:37;;;;;;;1.77;1.17;;;4.50;99.90;;;;;;5072657;28;20532;-48
2022/11/09 06:49:04;;;;;;;1.30;1.13;;;4.70;99.90;;;;;;5074507;28;20443;-47
2022/11/09 06:51:32;;;;;;;1.33;0.90;;;4.90;99.90;;;;;;5074547;28;20535;-47
2022/11/09 06:53:59;;;;;;;2.43;1.43;;;5.00;99.90;;;;;;5074117;28;20987;-47
2022/11/09 06:56:26;;;;;;;3.60;2.70;;;4.90;99.90;;;;;;5074696;28;20503;-47
2022/11/09 06:58:53;;;;;;;3.87;2.47;;;4.80;99.90;;;;;;5074429;28;20989;-48
2022/11/09 07:01:25;;;;;;;2.60;2.03;;;4.70;99.90;;;;;;5074365;28;20481;-48
2022/11/09 07:03:52;;;;;;;3.60;1.30;;;4.80;99.90;;;;;;5073951;28;20512;-48
2022/11/09 07:06:19;;;;;;;1.40;1.23;;;4.40;99.90;;;;;;5074319;28;20539;-47
2022/11/09 07:08:47;;;;;;;1.97;1.03;;;4.20;99.90;;;;;;5074036;28;20989;-47
2022/11/09 07:11:16;;;;;;;1.90;1.30;;;4.40;99.90;;;;;;5074135;28;20532;-47
2022/11/09 07:13:43;;;;;;;1.90;1.13;;;4.70;99.90;;;;;;5073903;28;20788;-49
2022/11/09 07:16:11;;;;;;;1.90;1.50;;;4.70;99.90;;;;;;5074451;28;20955;-48
2022/11/09 07:18:38;;;;;;;2.90;1.53;;;4.70;99.90;;;;;;5074205;28;20954;-47
2022/11/09 07:21:06;;;;;;;4.70;2.63;;;4.90;99.90;;;;;;5073872;28;20817;-47
2022/11/09 07:23:33;;;;;;;5.00;4.20;;;4.80;99.90;;;;;;5074142;28;21025;-47
2022/11/09 07:26:01;;;;;;;3.40;2.97;;;4.90;99.90;;;;;;5073874;28;21038;-47
2022/11/09 07:28:28;;;;;;;3.90;3.50;;;4.60;99.90;;;;;;5073819;28;20483;-47
2022/11/09 07:30:57;;;;;;;2.90;2.50;;;4.00;99.90;;;;;;5073664;28;20500;-47
2022/11/09 07:33:25;;;;;;;14.23;11.07;;;3.80;99.90;;;;;;5073692;28;20528;-48
2022/11/09 07:35:52;;;;;;;12.77;11.40;;;3.40;99.90;;;;;;5073565;28;20467;-48
2022/11/09 07:38:19;;;;;;;15.20;11.87;;;3.00;99.90;;;;;;5074130;28;20912;-47
2022/11/09 07:40:46;;;;;;;11.97;9.53;;;2.90;99.90;;;;;;5074093;28;20452;-47
2022/11/09 07:43:14;;;;;;;10.40;8.40;;;2.90;99.90;;;;;;5073898;28;20567;-48
2022/11/09 07:45:41;;;;;;;11.23;9.50;;;2.90;99.90;;;;;;5073504;28;20607;-50
2022/11/09 07:48:10;;;;;;;7.03;6.32;;;3.10;99.90;;;;;;5072835;28;20485;-48
2022/11/09 07:50:39;;;;;;;6.63;5.00;;;3.60;99.90;;;;;;5073446;28;20533;-47
2022/11/09 07:53:07;;;;;;;5.20;4.70;;;4.00;99.90;;;;;;5073205;28;20574;-47
2022/11/09 07:55:34;;;;;;;5.40;4.90;;;4.20;99.90;;;;;;5073370;28;20481;-48
2022/11/09 07:58:03;;;;;;;8.10;5.90;;;4.40;99.90;;;;;;5072906;28;20487;-47
2022/11/09 08:00:33;;;;;;;6.87;6.17;;;4.50;99.90;;;;;;5073108;28;20449;-47
2022/11/09 08:03:01;;;;;;;9.10;6.40;;;4.50;99.90;;;;;;5073093;28;20535;-47
2022/11/09 08:05:28;;;;;;;9.20;7.90;;;4.40;99.90;;;;;;5072983;28;21026;-47
2022/11/09 08:07:56;;;;;;;8.10;6.87;;;4.00;99.90;;;;;;5072814;28;20477;-47
2022/11/09 08:10:23;;;;;;;8.30;5.30;;;4.20;99.90;;;;;;5073176;28;20527;-47
2022/11/09 08:12:54;;;;;;;8.97;8.07;;;4.30;99.90;;;;;;5072863;28;20477;-48
2022/11/09 08:18:20;;;;;;;9.00;6.80;;;4.20;99.90;;;;;;5109056;27;20559;-50
2022/11/09 08:20:47;;;;;;;7.63;6.83;;;4.20;99.90;;;;;;5109498;28;20538;-47
2022/11/09 08:23:16;;;;;;;6.30;5.23;;;4.40;99.90;;;;;;5108954;28;20523;-47
2022/11/09 08:25:43;;;;;;;7.33;4.33;;;4.50;99.90;;;;;;5109009;28;20553;-50
2022/11/09 08:28:10;;;;;;;10.93;6.97;;;4.70;99.90;;;;;;5109164;28;20902;-47
2022/11/09 08:30:37;;;;;;;6.90;6.30;;;4.40;99.90;;;;;;5108619;28;20527;-47
2022/11/09 08:33:04;;;;;;;5.80;5.07;;;4.00;99.90;;;;;;5108668;28;20449;-47
2022/11/09 08:35:33;;;;;;;6.30;4.17;;;3.90;99.90;;;;;;5108790;28;20536;-47
2022/11/09 08:38:02;;;;;;;5.70;3.60;;;4.00;99.90;;;;;;5108690;28;20439;-50
2022/11/09 08:40:30;;;;;;;6.80;5.10;;;4.40;99.90;;;;;;5108990;28;20444;-46
2022/11/09 08:43:02;;;;;;;11.07;9.00;;;4.70;99.90;;;;;;5108605;28;20444;-47
2022/11/09 08:45:29;;;;;;;7.77;5.83;;;4.70;99.90;;;;;;5108631;28;20480;-47
2022/11/09 08:48:00;;;;;;;7.27;5.53;;;4.30;99.90;;;;;;5108413;28;20869;-46
2022/11/09 08:50:27;;;;;;;6.90;4.40;;;4.30;99.90;;;;;;5108704;28;20957;-47
2022/11/09 08:52:55;;;;;;;6.07;3.53;;;4.60;99.90;;;;;;5108342;28;20448;-48
2022/11/09 08:55:23;;;;;;;3.23;2.90;;;4.80;99.90;;;;;;5108486;28;20487;-47
2022/11/09 08:57:52;;;;;;;3.90;2.73;;;5.00;99.90;;;;;;5108405;28;20502;-46
2022/11/09 09:00:19;;;;;;;6.80;3.17;;;5.30;99.90;;;;;;5108349;28;20942;-50
2022/11/09 09:02:46;;;;;;;7.13;3.20;;;5.40;99.90;;;;;;5108048;28;20932;-47
2022/11/09 09:05:13;;;;;;;4.03;3.50;;;5.40;99.90;;;;;;5108098;28;20461;-47
2022/11/09 09:07:40;;;;;;;3.40;2.90;;;5.30;99.90;;;;;;5108204;28;20842;-47
2022/11/09 09:10:08;;;;;;;4.73;3.13;;;5.20;99.90;;;;;;5108543;28;20432;-47
2022/11/09 09:12:36;;;;;;;2.87;2.57;;;5.30;99.90;;;;;;5108107;28;20553;-47
2022/11/09 09:15:03;;;;;;;4.00;2.37;;;5.50;99.90;;;;;;5107812;28;20459;-47
2022/11/09 09:17:30;;;;;;;2.80;2.40;;;5.70;99.90;;;;;;5108025;28;20525;-47
2022/11/09 09:19:57;;;;;;;3.50;2.23;;;5.80;99.90;;;;;;5108175;28;20448;-47
2022/11/09 09:22:24;;;;;;;3.30;1.50;;;6.00;99.90;;;;;;5108111;28;20434;-47
2022/11/09 09:24:51;;;;;;;1.90;1.50;;;6.20;99.90;;;;;;5107699;28;20924;-47
2022/11/09 09:27:19;;;;;;;2.90;1.90;;;6.40;99.90;;;;;;5107698;28;20480;-47
2022/11/09 09:29:46;;;;;;;1.83;1.53;;;6.50;99.90;;;;;;5093564;28;20557;-47
2022/11/09 09:32:13;;;;;;;2.43;1.80;;;6.60;99.90;;;;;;5094435;28;20446;-47
2022/11/09 09:34:39;;;;;;;2.10;1.63;;;6.70;99.90;;;;;;5093952;28;20462;-48
2022/11/09 09:37:06;;;;;;;2.40;1.73;;;6.80;99.90;;;;;;5094023;28;20440;-47
2022/11/09 09:39:33;;;;;;;2.10;1.67;;;6.90;99.90;;;;;;5093992;28;20536;-47
2022/11/09 09:42:02;;;;;;;2.13;1.30;;;7.00;99.90;;;;;;5094540;28;20451;-47
2022/11/09 09:44:34;;;;;;;338.97;99.73;;;7.20;99.90;;;;;;5094185;28;20500;-47
2022/11/09 09:47:12;;;;;;;8.83;4.43;;;7.60;99.90;;;;;;5094294;28;20503;-47
2022/11/09 09:49:43;;;;;;;6.60;2.13;;;7.60;99.90;;;;;;5093701;28;20522;-47
2022/11/09 09:52:19;;;;;;;73.00;23.53;;;7.70;99.90;;;;;;5093588;28;20534;-47
2022/11/09 09:54:56;;;;;;;5.47;2.80;;;8.00;99.90;;;;;;5093582;28;20495;-47
2022/11/09 09:57:25;;;;;;;2.30;1.40;;;8.00;99.90;;;;;;5093842;28;21003;-47
2022/11/09 09:59:58;;;;;;;2.43;1.60;;;8.00;99.90;;;;;;5093663;28;20519;-46
2022/11/09 10:02:26;;;;;;;65.83;19.57;;;7.90;99.90;;;;;;5093488;28;20497;-46
2022/11/09 10:04:56;;;;;;;3.30;3.00;;;8.00;99.90;;;;;;5093242;28;20898;-50
2022/11/09 10:07:29;;;;;;;3.33;2.53;;;7.90;99.90;;;;;;5093536;28;20476;-47
2022/11/09 10:10:20;;;;;;;7.77;3.87;;;8.00;99.90;;;;;;5093759;28;20795;-49
2022/11/09 10:13:00;;;;;;;3.13;2.77;;;8.10;99.90;;;;;;5093110;28;20451;-48
2022/11/09 10:15:31;;;;;;;2.27;1.93;;;8.10;99.90;;;;;;5093532;28;20466;-47
2022/11/09 10:18:15;;;;;;;3.77;2.20;;;8.10;99.90;;;;;;5093344;28;20917;-47
2022/11/09 10:20:52;;;;;;;2.40;2.10;;;8.10;99.90;;;;;;5093321;28;20515;-47
2022/11/09 10:23:38;;;;;;;3.70;2.67;;;8.30;99.90;;;;;;5092863;28;20479;-47
2022/11/09 10:26:16;;;;;;;2.33;1.63;;;8.50;99.90;;;;;;5092563;28;20468;-47
2022/11/09 10:28:46;;;;;;;3.05;1.60;;;8.60;99.90;;;;;;5092789;28;20540;-49
2022/11/09 10:31:19;;;;;;;2.63;1.50;;;8.50;99.90;;;;;;5092915;28;20284;-49
2022/11/09 10:33:49;;;;;;;1.70;1.50;;;8.70;99.90;;;;;;5092648;28;20447;-48
2022/11/09 10:36:23;;;;;;;3.10;2.03;;;8.80;99.90;;;;;;5092673;28;21019;-48
2022/11/09 10:38:52;;;;;;;2.00;1.73;;;8.90;99.90;;;;;;5092697;28;20527;-49
2022/11/09 10:41:28;;;;;;;2.50;2.00;;;9.00;99.90;;;;;;5091599;28;20534;-47
2022/11/09 10:43:55;;;;;;;2.97;1.60;;;9.00;99.90;;;;;;5092365;28;20466;-48
2022/11/09 10:46:24;;;;;;;1.97;1.23;;;9.30;99.90;;;;;;5092449;28;21015;-49
2022/11/09 10:48:52;;;;;;;1.70;1.30;;;9.20;99.90;;;;;;5092172;28;20467;-47
2022/11/09 10:51:33;;;;;;;1457.50;555.83;;;9.10;99.90;;;;;;5092605;28;20824;-48
2022/11/09 10:54:19;;;;;;;10.70;7.73;;;9.20;99.90;;;;;;5092139;28;20527;-48
2022/11/09 10:56:48;;;;;;;2.87;2.37;;;9.20;99.90;;;;;;5092216;28;20948;-50
2022/11/09 10:59:37;;;;;;;20.70;6.90;;;9.30;99.90;;;;;;5092193;28;20444;-49
2022/11/09 11:02:45;;;;;;;7.00;3.70;;;9.60;99.90;;;;;;5092602;28;20523;-47
2022/11/09 11:05:30;;;;;;;3.43;2.10;;;9.70;99.90;;;;;;5091983;28;20487;-47
2022/11/09 11:08:03;;;;;;;1811.77;544.53;;;9.80;99.90;;;;;;5092052;28;20471;-48
2022/11/09 11:10:29;;;;;;;10.30;8.40;;;10.10;99.90;;;;;;5091874;28;20439;-49
2022/11/09 11:13:19;;;;;;;3.33;2.37;;;10.10;99.90;;;;;;5091740;28;20530;-47
2022/11/09 11:15:46;;;;;;;47.93;16.37;;;10.00;99.90;;;;;;5091996;28;20562;-49
2022/11/09 11:18:18;;;;;;;4.30;2.43;;;10.10;99.90;;;;;;5091807;28;20534;-49
2022/11/09 11:20:46;;;;;;;23.67;8.93;;;10.00;99.90;;;;;;5091913;28;20523;-48
2022/11/09 11:23:15;;;;;;;4.27;2.33;;;10.10;99.90;;;;;;5091709;28;20444;-48
2022/11/09 11:26:00;;;;;;;2.27;2.07;;;10.20;99.90;;;;;;5092035;28;20535;-47
2022/11/09 11:28:34;;;;;;;2.57;1.70;;;10.10;99.90;;;;;;5092002;28;20512;-48
2022/11/09 11:31:02;;;;;;;45.73;18.33;;;10.10;99.90;;;;;;5091547;28;20450;-49
2022/11/09 11:33:33;;;;;;;7.13;3.60;;;10.00;99.90;;;;;;5091532;28;20491;-48
2022/11/09 11:36:08;;;;;;;2.90;2.33;;;10.10;99.90;;;;;;5091604;28;20470;-49
2022/11/09 11:38:39;;;;;;;2.63;2.00;;;10.30;99.90;;;;;;5091834;28;20559;-48
2022/11/09 11:41:20;;;;;;;2.63;1.93;;;10.20;99.90;;;;;;5091727;28;20627;-49
2022/11/09 11:43:56;;;;;;;2.40;2.10;;;10.50;99.90;;;;;;5091431;28;20538;-49
2022/11/09 11:46:37;;;;;;;2.33;1.80;;;10.50;99.90;;;;;;5091361;28;20464;-47
2022/11/09 11:49:36;;;;;;;2.53;1.97;;;10.70;99.90;;;;;;5091133;28;20567;-48
2022/11/09 11:52:13;;;;;;;3.33;1.97;;;10.90;99.90;;;;;;5091047;28;20447;-47
2022/11/09 11:54:50;;;;;;;8.50;3.43;;;10.70;99.90;;;;;;5091384;28;20539;-47
2022/11/09 11:57:24;;;;;;;17.00;4.90;;;10.80;99.90;;;;;;5091475;28;20997;-48
2022/11/09 12:00:08;;;;;;;4.40;2.90;;;10.90;99.90;;;;;;5091423;28;20956;-50
2022/11/09 12:03:21;;;;;;;4.93;2.40;;;10.80;99.90;;;;;;5091135;28;20838;-48
2022/11/09 12:06:14;;;;;;;3.60;2.10;;;10.90;99.90;;;;;;5091193;28;20464;-48
2022/11/09 12:09:03;;;;;;;2.03;1.80;;;11.00;99.90;;;;;;5091193;28;20469;-48
2022/11/09 12:11:43;;;;;;;6.63;3.30;;;10.90;99.90;;;;;;5091079;28;20517;-48
2022/11/09 12:14:18;;;;;;;2.57;2.00;;;10.80;99.90;;;;;;5091126;28;20532;-48
2022/11/09 12:16:52;;;;;;;3.50;1.93;;;10.90;99.90;;;;;;5091364;28;20727;-48
2022/11/09 12:19:48;;;;;;;55.20;10.57;;;11.00;99.90;;;;;;5091380;28;20438;-48
2022/11/09 12:22:22;;;;;;;6.60;3.13;;;11.00;99.90;;;;;;5090928;28;20437;-48
2022/11/09 12:24:56;;;;;;;8.97;3.30;;;11.00;99.90;;;;;;5090867;28;20466;-48
2022/11/09 12:27:45;;;;;;;3.70;1.97;;;11.00;99.90;;;;;;5091062;28;20915;-48
2022/11/09 12:30:16;;;;;;;2.37;1.70;;;10.90;99.90;;;;;;5090984;28;20969;-48
2022/11/09 12:32:50;;;;;;;2.35;2.00;;;10.80;99.90;;;;;;5090799;28;20483;-48
2022/11/09 12:35:29;;;;;;;90.57;18.23;;;10.80;99.90;;;;;;5090890;28;20300;-48
2022/11/09 12:38:00;;;;;;;11.73;3.17;;;11.00;99.90;;;;;;5090924;28;20457;-48
2022/11/09 12:40:31;;;;;;;2.83;1.90;;;11.00;99.90;;;;;;5091407;28;20450;-48
2022/11/09 12:43:03;;;;;;;18.87;4.47;;;11.20;99.90;;;;;;5090729;28;20565;-49
2022/11/09 12:45:33;;;;;;;3.30;2.50;;;11.10;99.90;;;;;;5090720;28;21038;-48
2022/11/09 12:48:05;;;;;;;2.77;1.83;;;10.90;99.90;;;;;;5090365;28;20916;-48
2022/11/09 12:50:32;;;;;;;4.37;2.20;;;10.80;99.90;;;;;;5090794;28;20896;-50
2022/11/09 12:53:03;;;;;;;3.70;2.50;;;10.90;99.90;;;;;;5090700;28;20445;-48
2022/11/09 12:55:39;;;;;;;4.00;2.27;;;11.00;99.90;;;;;;5090895;28;20548;-48
2022/11/09 12:58:06;;;;;;;3.80;2.70;;;11.20;99.90;;;;;;5090797;28;20440;-51
2022/11/09 13:00:48;;;;;;;11.00;3.47;;;11.30;99.90;;;;;;5090713;28;20533;-48
2022/11/09 13:03:20;;;;;;;4.30;2.23;;;11.20;99.90;;;;;;5091179;28;20530;-50
2022/11/09 13:05:48;;;;;;;3.23;2.63;;;11.20;99.90;;;;;;5094286;28;20493;-48
2022/11/09 13:08:19;;;;;;;2.83;2.40;;;11.30;99.90;;;;;;5094530;28;20504;-49
2022/11/09 13:11:06;;;;;;;13.07;2.50;;;11.30;99.90;;;;;;5094622;28;20533;-48
2022/11/09 13:13:33;;;;;;;4.57;2.47;;;11.40;99.90;;;;;;5094156;28;20483;-52